Flight Track Log - Related Links

Times and Time Zones

All times are in EDT time to prevent confusion due to time zone crossing. See the AIE863 flight status page for this flight to view local times or setup timezone preferences in your user account.

Time Position Orientation Groundspeed Altitude Reporting Facility
EDT Latitude Longitude Course Direction KTS MPH feet Rate Location/Type
Sat 07:04:42 PM 58.1000 -68.4167 208° Southwest 120 138 700  Level Montreal Center
Sat 07:05:42 PM 58.0667 -68.4500 208° Southwest 160 184 2,700 2,200 Climbing Montreal Center
Sat 07:06:42 PM 58.0333 -68.5167 227° Southwest 170 196 5,100 2,300 Climbing Montreal Center
Sat 07:07:42 PM 58.0167 -68.5833 245° Southwest 170 196 7,300 2,300 Climbing Montreal Center
Sat 07:08:42 PM 57.9833 -68.6833 238° Southwest 180 207 9,700 2,200 Climbing Montreal Center
Sat 07:09:42 PM 57.9500 -68.7667 233° Southwest 180 207 11,700 1,800 Climbing Montreal Center
Sat 07:10:42 PM 57.9167 -68.8333 227° Southwest 180 207 13,300 1,600 Climbing Montreal Center
Sat 07:11:42 PM 57.9000 -68.9333 253° West 190 219 14,900 1,550 Climbing Montreal Center
Sat 07:12:42 PM 57.8500 -69.0000 215° Southwest 200 230 16,400 1,400 Climbing Montreal Center
Sat 07:13:42 PM 57.8167 -69.0667 227° Southwest 200 230 17,700 1,100 Climbing Montreal Center
Sat 07:14:42 PM 57.7833 -69.1667 238° Southwest 200 230 18,600 1,100 Climbing Montreal Center
Sat 07:15:42 PM 57.7500 -69.2333 227° Southwest 210 242 19,900 1,250 Climbing Montreal Center
Sat 07:16:42 PM 57.7167 -69.3500 242° Southwest 200 230 21,100 1,050 Climbing Montreal Center
Sat 07:17:42 PM 57.6833 -69.4167 227° Southwest 210 242 22,000 1,050 Climbing Montreal Center
Sat 07:18:42 PM 57.6333 -69.5167 227° Southwest 210 242 23,200 1,000 Climbing Montreal Center
Sat 07:19:42 PM 57.6167 -69.6167 253° West 210 242 24,000 400 Climbing Montreal Center
Sat 07:20:42 PM 57.5667 -69.7167 227° Southwest 230 265 24,000  Level Montreal Center
Sat 07:21:42 PM 57.5167 -69.8167 227° Southwest 260 299 24,000  Level Montreal Center
Sat 07:22:42 PM 57.4667 -69.9167 227° Southwest 260 299 24,000  Level Montreal Center
Sat 07:23:42 PM 57.4500 -70.0167 253° West 250 288 24,000  Level Montreal Center
Sat 07:24:42 PM 57.4000 -70.1167 227° Southwest 250 288 24,000  Level Montreal Center
Sat 07:25:42 PM 57.3500 -70.2167 227° Southwest 240 276 24,000  Level Montreal Center
Sat 07:26:42 PM 57.3000 -70.3167 227° Southwest 240 276 24,000  Level Montreal Center
Sat 07:27:42 PM 57.2500 -70.4167 227° Southwest 250 288 24,000  Level Montreal Center
Sat 07:28:42 PM 57.2333 -70.5167 253° West 250 288 24,000  Level Montreal Center
Sat 07:29:42 PM 57.1833 -70.6167 227° Southwest 240 276 24,000  Level Montreal Center
Sat 07:30:42 PM 57.1333 -70.7167 227° Southwest 240 276 24,000  Level Montreal Center
Sat 07:31:42 PM 57.1000 -70.8167 238° Southwest 240 276 24,000  Level Montreal Center
Sat 07:32:42 PM 57.0667 -70.9167 239° Southwest 240 276 24,000  Level Montreal Center
Sat 07:33:42 PM 57.0167 -71.0167 227° Southwest 250 288 24,000  Level Montreal Center
Sat 07:34:42 PM 56.9667 -71.1167 227° Southwest 240 276 24,000  Level Montreal Center
Sat 07:35:42 PM 56.9167 -71.2167 228° Southwest 250 288 24,000  Level Montreal Center
Sat 07:37:00 PM 56.8590 -71.3469 231° Southwest  Level FlightAware Approximate
Sat 07:37:42 PM 56.8500 -71.4000 231° Southwest 250 288 24,000  Level Montreal Center
Sat 07:38:42 PM 56.8000 -71.5000 228° Southwest 250 288 24,000  Level Montreal Center
Sat 07:39:42 PM 56.7500 -71.6000 228° Southwest 250 288 24,000  Level Montreal Center
Sat 07:40:42 PM 56.7000 -71.7000 228° Southwest 250 288 24,000  Level Montreal Center
Sat 07:41:42 PM 56.6667 -71.8000 239° Southwest 250 288 24,000  Level Montreal Center
Sat 07:42:42 PM 56.6167 -71.9000 228° Southwest 250 288 24,000  Level Montreal Center
Sat 07:43:42 PM 56.5833 -71.9833 234° Southwest 250 288 24,000  Level Montreal Center
Sat 07:44:42 PM 56.5333 -72.0833 228° Southwest 240 276 24,000  Level Montreal Center
Sat 07:45:42 PM 56.5000 -72.1833 239° Southwest 250 288 24,000  Level Montreal Center
Sat 07:46:42 PM 56.4500 -72.2833 228° Southwest 250 288 24,000  Level Montreal Center
Sat 07:47:42 PM 56.4000 -72.3667 223° Southwest 250 288 24,000  Level Montreal Center
Sat 07:48:42 PM 56.3500 -72.4667 228° Southwest 250 288 24,000  Level Montreal Center
Sat 07:49:42 PM 56.3000 -72.5667 228° Southwest 250 288 24,000  Level Montreal Center
Sat 07:50:42 PM 56.2500 -72.6667 228° Southwest 250 288 24,000  Level Montreal Center
Sat 07:51:42 PM 56.2167 -72.7500 234° Southwest 250 288 24,000  Level Montreal Center
Sat 07:52:42 PM 56.1667 -72.8500 228° Southwest 250 288 24,000  Level Montreal Center
Sat 07:53:42 PM 56.1333 -72.9333 234° Southwest 250 288 24,000  Level Montreal Center
Sat 07:54:42 PM 56.0833 -73.0333 228° Southwest 250 288 24,000  Level Montreal Center
Sat 07:55:42 PM 56.0333 -73.1333 228° Southwest 250 288 24,000  Level Montreal Center
Sat 07:56:42 PM 55.9833 -73.2167 223° Southwest 240 276 24,000  Level Montreal Center
Sat 07:57:42 PM 55.9333 -73.3167 228° Southwest 250 288 24,000  Level Montreal Center
Sat 07:58:42 PM 55.8833 -73.4333 233° Southwest 250 288 24,000  Level Montreal Center
Sat 07:59:42 PM 55.8500 -73.5333 239° Southwest 250 288 24,000  Level Montreal Center
Sat 08:00:42 PM 55.8167 -73.6333 239° Southwest 250 288 24,000  Level Montreal Center
Sat 08:01:42 PM 55.7667 -73.7167 223° Southwest 250 288 24,000  Level Montreal Center
Sat 08:02:42 PM 55.7167 -73.8167 228° Southwest 250 288 24,000  Level Montreal Center
Sat 08:03:42 PM 55.6667 -73.9000 223° Southwest 250 288 24,000  Level Montreal Center
Sat 08:04:42 PM 55.6167 -74.0000 229° Southwest 250 288 24,000  Level Montreal Center
Sat 08:05:42 PM 55.5667 -74.0833 223° Southwest 250 288 24,000  Level Montreal Center
Sat 08:06:42 PM 55.5333 -74.1833 240° Southwest 250 288 24,000  Level Montreal Center
Sat 08:07:42 PM 55.4833 -74.2667 223° Southwest 240 276 24,000  Level Montreal Center
Sat 08:08:42 PM 55.4333 -74.3667 229° Southwest 240 276 24,000  Level Montreal Center
Sat 08:09:42 PM 55.3833 -74.4500 223° Southwest 240 276 24,000  Level Montreal Center
Sat 08:10:42 PM 55.3500 -74.5333 235° Southwest 250 288 24,000  Level Montreal Center
Sat 08:11:42 PM 55.3000 -74.6333 229° Southwest 240 276 24,000  Level Montreal Center
Sat 08:12:42 PM 55.2500 -74.7167 224° Southwest 250 288 24,000  Level Montreal Center
Sat 08:13:42 PM 55.2000 -74.8167 229° Southwest 230 265 24,000  Level Montreal Center
Sat 08:14:42 PM 55.1667 -74.9000 235° Southwest 250 288 24,000  Level Montreal Center
Sat 08:15:42 PM 55.1167 -74.9667 217° Southwest 230 265 24,000  Level Montreal Center
Sat 08:16:42 PM 55.0667 -75.0833 233° Southwest 240 276 24,000  Level Montreal Center
Sat 08:17:42 PM 55.0167 -75.1333 210° Southwest 230 265 24,000  Level Montreal Center
Sat 08:18:42 PM 54.9833 -75.2333 240° Southwest 240 276 24,000  Level Montreal Center
Sat 08:19:42 PM 54.9333 -75.3167 224° Southwest 240 276 24,000  Level Montreal Center
Sat 08:20:42 PM 54.8833 -75.4000 224° Southwest 240 276 24,000  Level Montreal Center
Sat 08:21:42 PM 54.8500 -75.5000 240° Southwest 240 276 24,000  Level Montreal Center
Sat 08:22:42 PM 54.8000 -75.5833 224° Southwest 240 276 24,000  Level Montreal Center
Sat 08:23:42 PM 54.7500 -75.6667 224° Southwest 240 276 24,000  Level Montreal Center
Sat 08:24:42 PM 54.7167 -75.7667 240° Southwest 240 276 24,000 -550 Level Montreal Center
Sat 08:25:42 PM 54.6667 -75.8500 224° Southwest 250 288 22,900 -1,100 Descending Montreal Center
Sat 08:26:42 PM 54.6167 -75.9333 224° Southwest 270 311 21,800 -1,150 Descending Montreal Center
Sat 08:27:42 PM 54.5500 -76.0500 225° Southwest 280 322 20,600 -1,150 Descending Montreal Center
Sat 08:28:42 PM 54.5000 -76.1333 224° Southwest 290 334 19,500 -1,150 Descending Montreal Center
Sat 08:29:42 PM 54.4500 -76.2500 234° Southwest 290 334 18,300 -1,100 Descending Montreal Center
Sat 08:30:42 PM 54.4000 -76.3333 224° Southwest 280 322 17,300 -1,200 Descending Montreal Center
Sat 08:31:42 PM 54.3333 -76.4500 226° Southwest 290 334 15,900 -1,250 Descending Montreal Center
Sat 08:32:42 PM 54.2833 -76.5333 224° Southwest 280 322 14,800 -1,100 Descending Montreal Center
Sat 08:33:42 PM 54.2333 -76.6333 229° Southwest 270 311 13,700 -1,100 Descending Montreal Center
Sat 08:34:42 PM 54.1833 -76.7167 224° Southwest 270 311 12,600 -1,050 Descending Montreal Center
Sat 08:35:42 PM 54.1333 -76.8333 234° Southwest 260 299 11,600 -1,000 Descending Montreal Center
Sat 08:36:42 PM 54.0833 -76.9167 224° Southwest 260 299 10,600 -1,050 Descending Montreal Center
Sat 08:37:42 PM 54.0333 -77.0000 224° Southwest 260 299 9,500 -1,050 Descending Montreal Center
Sat 08:38:42 PM 53.9833 -77.0833 224° Southwest 260 299 8,500 -1,050 Descending Montreal Center
Sat 08:39:42 PM 53.9167 -77.1667 216° Southwest 260 299 7,400 -1,050 Descending Montreal Center
Sat 08:40:42 PM 53.8667 -77.2500 225° Southwest 250 288 6,400 -900 Descending Montreal Center
Sat 08:41:42 PM 53.8333 -77.3333 236° Southwest 250 288 5,600 -1,000 Descending Montreal Center
Sat 08:42:42 PM 53.8000 -77.4500 244° Southwest 250 288 4,400 -1,350 Descending Montreal Center
Sat 08:43:42 PM 53.7833 -77.5667 256° West 250 288 2,900 -1,050 Descending Montreal Center
Sat 08:44:42 PM 53.7333 -77.6500 225° Southwest 220 253 2,300 -450 Descending Montreal Center
Sat 08:45:42 PM 53.7000 -77.7000 222° Southwest 200 230 2,000 -300 Descending Montreal Center
Sat 08:47:00 PM 53.6253 -77.7042 225° Southwest  Level Estimated

Login

Don't have an account? Register now (free) for customized features, flight alerts, and more!